createdAt,value
2017-12-16T00:00:14.615Z,3.96
2017-12-16T00:02:42.805Z,3.88
2017-12-16T00:05:11.759Z,3.91
2017-12-16T00:07:39.931Z,3.97
2017-12-16T00:10:08.101Z,3.98
2017-12-16T00:12:36.304Z,4.01
2017-12-16T00:15:04.503Z,4.00
2017-12-16T00:17:33.434Z,4.01
2017-12-16T00:20:01.610Z,4.01
2017-12-16T00:22:29.837Z,4.03
2017-12-16T00:24:58.823Z,4.03
2017-12-16T00:27:27.038Z,4.08
2017-12-16T00:29:55.226Z,4.06
2017-12-16T00:32:23.434Z,4.11
2017-12-16T00:34:51.630Z,4.16
2017-12-16T00:37:19.812Z,4.03
2017-12-16T00:39:48.820Z,3.98
2017-12-16T00:42:17.797Z,3.95
2017-12-16T00:44:46.750Z,3.99
2017-12-16T00:47:14.958Z,3.95
2017-12-16T00:49:43.174Z,3.95
2017-12-16T00:52:11.389Z,3.93
2017-12-16T00:54:39.639Z,3.93
2017-12-16T00:57:07.826Z,3.92
2017-12-16T00:59:36.003Z,3.91
2017-12-16T01:02:04.275Z,3.91
2017-12-16T01:04:32.456Z,3.94
2017-12-16T01:07:00.626Z,3.90
2017-12-16T01:09:28.809Z,3.94
2017-12-16T01:11:56.995Z,4.01
2017-12-16T01:14:25.155Z,3.97
2017-12-16T01:16:53.332Z,3.94
2017-12-16T01:19:21.507Z,3.87
2017-12-16T01:21:49.696Z,3.87
2017-12-16T01:24:17.932Z,3.90
2017-12-16T01:26:46.118Z,3.88
2017-12-16T01:29:14.299Z,3.88
2017-12-16T01:31:42.472Z,3.92
2017-12-16T01:37:35.906Z,3.93
2017-12-16T01:40:04.896Z,4.01
2017-12-16T01:42:33.827Z,3.98
2017-12-16T01:45:02.010Z,3.96
2017-12-16T01:47:30.256Z,3.97
2017-12-16T01:49:58.489Z,4.01
2017-12-16T01:52:26.707Z,3.97
2017-12-16T01:54:54.881Z,3.95
2017-12-16T01:57:23.865Z,3.95
2017-12-16T01:59:52.809Z,3.93
2017-12-16T02:02:21.011Z,3.92
2017-12-16T02:04:49.191Z,3.86
2017-12-16T02:07:17.405Z,3.82
2017-12-16T02:09:45.636Z,3.73
2017-12-16T02:12:13.824Z,3.70
2017-12-16T02:14:42.017Z,3.70
2017-12-16T02:17:11.033Z,3.71
2017-12-16T02:19:39.255Z,3.65
2017-12-16T02:22:07.543Z,3.62
2017-12-16T02:24:35.750Z,3.57
2017-12-16T02:27:03.957Z,3.56
2017-12-16T02:29:32.177Z,3.59
2017-12-16T02:32:01.182Z,3.67
2017-12-16T02:34:30.126Z,3.55
2017-12-16T02:36:58.341Z,3.52
2017-12-16T02:39:27.306Z,3.46
2017-12-16T02:41:55.481Z,3.45
2017-12-16T02:44:23.660Z,3.48
2017-12-16T02:46:51.875Z,3.45
2017-12-16T02:49:20.059Z,3.42
2017-12-16T02:51:48.242Z,3.45
2017-12-16T02:54:16.421Z,3.43
2017-12-16T02:56:44.616Z,3.43
2017-12-16T02:59:13.626Z,3.42
2017-12-16T03:01:41.834Z,3.40
2017-12-16T03:04:10.276Z,3.38
2017-12-16T03:06:38.484Z,3.39
2017-12-16T03:09:07.450Z,3.37
2017-12-16T03:11:35.656Z,3.39
2017-12-16T03:14:04.608Z,3.42
2017-12-16T03:16:32.805Z,3.39
2017-12-16T03:19:00.994Z,3.36
2017-12-16T03:21:29.942Z,3.38
2017-12-16T03:23:58.131Z,3.38
2017-12-16T03:26:26.411Z,3.49
2017-12-16T04:50:52.295Z,2.88
2017-12-16T04:53:20.482Z,2.90
2017-12-16T04:55:48.670Z,2.97
2017-12-16T04:58:17.632Z,2.96
2017-12-16T05:00:46.655Z,3.08
2017-12-16T05:03:14.843Z,3.11
2017-12-16T05:05:43.795Z,3.13
2017-12-16T05:08:11.970Z,3.13
2017-12-16T05:10:40.186Z,3.08
2017-12-16T05:13:09.194Z,3.11
2017-12-16T05:15:37.407Z,3.13
2017-12-16T05:18:06.369Z,3.16
2017-12-16T05:20:34.550Z,3.14
2017-12-16T05:23:02.816Z,3.12
2017-12-16T05:25:30.985Z,3.15
2017-12-16T05:27:59.170Z,3.13
2017-12-16T05:30:27.419Z,3.11
2017-12-16T05:32:56.392Z,3.08
2017-12-16T05:35:24.591Z,3.08
2017-12-16T05:37:53.555Z,3.06
2017-12-16T05:40:21.740Z,3.04
2017-12-16T05:42:49.936Z,3.02
2017-12-16T05:45:18.871Z,3.06
2017-12-16T05:47:47.065Z,3.08
2017-12-16T05:50:15.291Z,3.03
2017-12-16T05:52:43.502Z,2.98
2017-12-16T05:55:11.680Z,2.97
2017-12-16T05:57:39.864Z,2.98
2017-12-16T06:00:08.080Z,2.97
2017-12-16T06:02:37.049Z,2.96
2017-12-16T06:05:05.243Z,2.90
2017-12-16T06:07:34.180Z,2.90
2017-12-16T06:10:02.351Z,2.87
2017-12-16T06:12:30.542Z,2.84
2017-12-16T06:14:58.734Z,2.85
2017-12-16T06:17:26.941Z,2.85
2017-12-16T06:19:55.890Z,2.82
2017-12-16T06:22:24.090Z,2.80
2017-12-16T06:24:52.278Z,2.78
2017-12-16T06:27:21.238Z,2.77
2017-12-16T06:29:49.427Z,2.77
2017-12-16T06:32:17.615Z,2.76
2017-12-16T06:34:46.563Z,2.75
2017-12-16T06:37:14.786Z,2.73
2017-12-16T06:39:43.741Z,2.74
2017-12-16T06:42:11.942Z,2.72
2017-12-16T06:44:40.139Z,2.73
2017-12-16T06:47:09.073Z,2.76
2017-12-16T06:49:37.247Z,2.79
2017-12-16T06:52:05.482Z,2.81
2017-12-16T06:54:34.432Z,2.84
2017-12-16T06:57:02.650Z,2.84
2017-12-16T06:59:31.606Z,2.85
2017-12-16T07:01:59.770Z,2.90
2017-12-16T07:04:27.967Z,2.95
2017-12-16T07:06:56.130Z,2.92
2017-12-16T07:09:24.295Z,2.95
2017-12-16T07:11:52.478Z,2.94
2017-12-16T07:14:20.673Z,2.97
2017-12-16T07:16:49.611Z,2.96
2017-12-16T07:19:17.785Z,3.02
2017-12-16T07:21:45.964Z,3.12
2017-12-16T07:24:14.136Z,3.03
2017-12-16T07:26:42.298Z,3.04
2017-12-16T07:29:10.472Z,3.04
2017-12-16T07:31:38.638Z,3.17
2017-12-16T07:34:06.828Z,3.09
2017-12-16T07:36:35.012Z,3.06
2017-12-16T07:39:03.226Z,3.09
2017-12-16T07:41:31.395Z,3.13
2017-12-16T07:43:59.571Z,3.21
2017-12-16T07:46:27.746Z,3.26
2017-12-16T07:48:55.919Z,3.33
2017-12-16T07:51:24.120Z,3.36
2017-12-16T07:53:53.096Z,3.45
2017-12-16T07:56:21.273Z,3.54
2017-12-16T07:58:49.496Z,3.61
2017-12-16T08:01:17.664Z,3.65
2017-12-16T08:03:45.831Z,3.73
2017-12-16T08:06:14.048Z,3.82
2017-12-16T08:08:42.194Z,3.88
2017-12-16T08:11:10.357Z,3.93
2017-12-16T08:13:38.518Z,4.03
2017-12-16T08:16:07.460Z,4.07
2017-12-16T08:18:35.633Z,4.18
2017-12-16T08:21:03.819Z,4.19
2017-12-16T08:23:32.030Z,4.19
2017-12-16T08:26:00.974Z,4.18
2017-12-16T08:28:29.162Z,4.21
2017-12-16T08:30:57.360Z,4.30
2017-12-16T08:33:26.311Z,4.30
2017-12-16T08:35:54.483Z,4.38
2017-12-16T08:38:22.661Z,4.51
2017-12-16T08:40:50.829Z,4.56
2017-12-16T08:43:19.009Z,4.56
2017-12-16T08:45:47.216Z,4.58
2017-12-16T08:48:15.398Z,4.69
2017-12-16T08:50:44.340Z,4.83
2017-12-16T08:53:12.513Z,4.90
2017-12-16T08:55:40.690Z,4.95
2017-12-16T08:58:08.870Z,5.06
2017-12-16T09:00:37.036Z,5.22
2017-12-16T09:03:05.216Z,5.27
2017-12-16T09:05:33.396Z,5.38
2017-12-16T09:08:01.574Z,5.42
2017-12-16T09:10:29.763Z,5.57
2017-12-16T09:12:57.947Z,5.66
2017-12-16T09:15:26.122Z,5.74
2017-12-16T09:17:54.298Z,5.81
2017-12-16T09:20:22.507Z,5.88
2017-12-16T09:22:50.680Z,5.90
2017-12-16T09:25:19.611Z,6.00
2017-12-16T09:27:47.866Z,6.12
2017-12-16T09:30:16.186Z,6.27
2017-12-16T09:32:44.363Z,6.24
2017-12-16T09:35:12.560Z,6.24
2017-12-16T09:37:41.516Z,6.27
2017-12-16T09:40:09.710Z,6.32
2017-12-16T09:42:38.035Z,6.44
2017-12-16T09:45:06.265Z,6.41
2017-12-16T09:47:34.456Z,6.47
2017-12-16T09:50:03.452Z,6.60
2017-12-16T09:52:32.402Z,6.70
2017-12-16T09:55:00.578Z,6.91
2017-12-16T09:57:28.781Z,7.20
2017-12-16T09:59:57.011Z,7.36
2017-12-16T10:02:25.198Z,7.69
2017-12-16T10:04:53.397Z,8.09
2017-12-16T10:07:21.564Z,8.35
2017-12-16T10:09:49.738Z,8.54
2017-12-16T10:12:17.910Z,8.75
2017-12-16T10:14:46.146Z,8.81
2017-12-16T10:17:14.321Z,8.88
2017-12-16T10:19:42.492Z,9.06
2017-12-16T10:22:10.707Z,9.18
2017-12-16T10:24:38.884Z,9.28
2017-12-16T10:27:07.066Z,9.39
2017-12-16T10:29:35.309Z,9.59
2017-12-16T10:32:03.493Z,9.57
2017-12-16T10:34:31.670Z,9.60
2017-12-16T10:36:59.846Z,9.91
2017-12-16T10:39:28.032Z,10.53
2017-12-16T10:41:57.004Z,11.63
2017-12-16T10:44:25.181Z,11.91
2017-12-16T10:46:53.362Z,12.08
2017-12-16T10:49:21.580Z,12.85
2017-12-16T10:51:50.530Z,14.40
2017-12-16T10:54:18.832Z,17.17
2017-12-16T10:56:47.006Z,19.93
2017-12-16T10:59:15.193Z,22.72
2017-12-16T11:01:43.377Z,23.90
2017-12-16T11:04:12.522Z,24.17
2017-12-16T11:06:40.747Z,22.22
2017-12-16T11:09:09.710Z,21.60
2017-12-16T11:11:37.894Z,21.13
2017-12-16T11:14:06.210Z,20.11
2017-12-16T11:16:35.186Z,18.77
2017-12-16T11:19:04.150Z,17.99
2017-12-16T11:21:32.327Z,17.43
2017-12-16T11:24:00.499Z,16.10
2017-12-16T11:26:28.730Z,15.58
2017-12-16T11:28:56.946Z,15.53
2017-12-16T11:31:25.126Z,14.90
2017-12-16T11:33:53.306Z,14.45
2017-12-16T11:36:21.864Z,13.89
2017-12-16T11:38:50.049Z,13.39
2017-12-16T11:41:18.223Z,13.45
2017-12-16T11:43:46.398Z,13.55
2017-12-16T11:46:14.617Z,13.20
2017-12-16T11:48:43.568Z,12.73
2017-12-16T11:51:11.751Z,12.04
2017-12-16T11:53:39.939Z,11.63
2017-12-16T11:56:08.871Z,11.55
2017-12-16T11:58:37.049Z,11.22
2017-12-16T12:01:05.266Z,10.36
2017-12-16T12:03:33.429Z,9.99
2017-12-16T12:06:05.276Z,10.05
2017-12-16T12:08:36.058Z,9.99
2017-12-16T12:11:04.234Z,11.09
2017-12-16T12:13:32.418Z,12.15
2017-12-16T12:16:12.393Z,12.97
2017-12-16T13:40:39.025Z,13.06
2017-12-16T13:43:07.207Z,12.65
2017-12-16T13:45:35.447Z,11.98
2017-12-16T13:48:03.616Z,11.68
2017-12-16T13:50:32.555Z,10.97
2017-12-16T13:53:00.738Z,10.42
2017-12-16T13:55:28.911Z,9.93
2017-12-16T13:57:57.127Z,9.71
2017-12-16T14:00:26.057Z,9.47
2017-12-16T14:02:54.223Z,9.30
2017-12-16T14:05:22.379Z,9.21
2017-12-16T14:07:50.539Z,9.32
2017-12-16T14:10:19.477Z,9.54
2017-12-16T14:12:47.638Z,9.78
2017-12-16T14:15:15.913Z,9.72
2017-12-16T14:17:44.065Z,9.51
2017-12-16T14:20:13.036Z,9.32
2017-12-16T14:22:41.998Z,8.95
2017-12-16T14:25:10.207Z,8.62
2017-12-16T14:27:39.162Z,8.49
2017-12-16T14:30:07.335Z,8.28
2017-12-16T14:32:35.498Z,8.08
2017-12-16T14:35:03.667Z,7.92
2017-12-16T14:37:31.836Z,7.87
2017-12-16T14:40:00.018Z,7.80
2017-12-16T14:42:28.206Z,7.63
2017-12-16T14:44:56.378Z,7.52
2017-12-16T14:47:24.622Z,7.43
2017-12-16T14:49:52.811Z,7.29
2017-12-16T14:52:20.996Z,7.20
2017-12-16T14:54:49.202Z,7.15
2017-12-16T14:57:17.414Z,7.13
2017-12-16T14:59:46.400Z,7.13
2017-12-16T15:02:14.555Z,7.08
2017-12-16T15:04:42.741Z,7.10
2017-12-16T15:07:11.714Z,6.97
2017-12-16T15:09:39.884Z,6.87
2017-12-16T15:12:08.064Z,6.75
2017-12-16T15:14:36.230Z,6.70
2017-12-16T15:17:04.422Z,6.72
2017-12-16T15:19:32.611Z,6.67
2017-12-16T15:22:01.651Z,6.67
2017-12-16T15:24:29.889Z,6.60
2017-12-16T15:26:58.814Z,6.53
2017-12-16T15:29:26.993Z,6.50
2017-12-16T15:31:55.173Z,6.47
2017-12-16T15:34:23.354Z,6.38
2017-12-16T15:36:51.536Z,6.34
2017-12-16T15:39:19.751Z,6.31
2017-12-16T15:41:48.699Z,6.26
2017-12-16T15:44:16.905Z,6.23
2017-12-16T15:46:45.872Z,6.18
2017-12-16T15:49:14.077Z,6.12
2017-12-16T15:51:43.020Z,6.08
2017-12-16T15:54:11.263Z,6.00
2017-12-16T15:56:39.436Z,5.99
2017-12-16T15:59:07.660Z,5.91
2017-12-16T16:01:36.699Z,5.86
2017-12-16T16:04:05.654Z,5.80
2017-12-16T16:06:33.855Z,5.84
2017-12-16T16:09:02.089Z,5.83
2017-12-16T16:11:30.280Z,5.81
2017-12-16T16:13:58.462Z,5.82
2017-12-16T16:16:26.647Z,5.80
2017-12-16T16:18:54.820Z,5.78
2017-12-16T16:21:23.024Z,5.70
2017-12-16T16:23:51.989Z,5.71
2017-12-16T17:48:17.841Z,3.69
2017-12-16T17:50:46.012Z,3.70
2017-12-16T17:53:14.190Z,3.70
2017-12-16T17:55:42.431Z,3.72
2017-12-16T17:58:10.637Z,3.74
2017-12-16T18:00:38.833Z,3.74
2017-12-16T18:03:07.799Z,3.73
2017-12-16T18:05:35.998Z,3.73
2017-12-16T18:08:05.005Z,3.74
2017-12-16T18:10:33.947Z,3.76
2017-12-16T18:13:02.143Z,3.77
2017-12-16T18:15:30.641Z,3.77
2017-12-16T18:17:59.610Z,3.81
2017-12-16T18:20:27.814Z,3.89
2017-12-16T18:22:56.786Z,3.94
2017-12-16T18:25:24.990Z,3.98
2017-12-16T18:27:53.217Z,3.99
2017-12-16T18:30:21.395Z,4.01
2017-12-16T18:32:49.594Z,4.02
2017-12-16T18:35:18.592Z,3.98
2017-12-16T18:37:47.630Z,3.93
2017-12-16T18:40:15.815Z,3.96
2017-12-16T18:42:44.012Z,3.89
2017-12-16T18:45:12.194Z,3.91
2017-12-16T18:47:40.391Z,3.86
2017-12-16T18:50:09.401Z,3.90
2017-12-16T18:52:37.581Z,3.82
2017-12-16T18:55:05.784Z,3.73
2017-12-16T18:57:34.007Z,3.66
2017-12-16T19:00:02.938Z,3.58
2017-12-16T19:02:31.131Z,3.52
2017-12-16T19:04:59.310Z,3.47
2017-12-16T19:07:27.484Z,3.42
2017-12-16T19:09:55.664Z,3.38
2017-12-16T19:12:23.859Z,3.41
2017-12-16T19:14:52.031Z,3.27
2017-12-16T19:17:20.226Z,3.18
2017-12-16T19:19:49.230Z,3.14
2017-12-16T19:22:17.402Z,3.12
2017-12-16T19:24:46.426Z,3.03
2017-12-16T19:27:14.634Z,2.96
2017-12-16T19:29:42.842Z,2.94
2017-12-16T19:32:11.804Z,2.93
2017-12-16T19:34:39.981Z,2.92
2017-12-16T19:37:08.183Z,2.84
2017-12-16T19:39:37.142Z,2.76
2017-12-16T19:42:05.339Z,2.76
2017-12-16T19:44:33.571Z,2.72
2017-12-16T19:47:01.780Z,2.79
2017-12-16T19:49:29.963Z,2.74
2017-12-16T19:51:58.144Z,2.75
2017-12-16T19:54:27.099Z,2.65
2017-12-16T19:56:55.293Z,2.58
2017-12-16T19:59:23.476Z,2.57
2017-12-16T20:01:51.655Z,2.52
2017-12-16T20:04:19.851Z,2.48
2017-12-16T20:06:48.787Z,2.43
2017-12-16T20:09:16.973Z,2.45
2017-12-16T20:11:45.158Z,2.40
2017-12-16T20:14:13.341Z,2.41
2017-12-16T20:16:42.473Z,2.39
2017-12-16T20:19:10.638Z,2.39
2017-12-16T20:21:38.872Z,2.39
2017-12-16T20:24:07.062Z,2.37
2017-12-16T20:26:35.270Z,2.35
2017-12-16T20:29:03.464Z,2.34
2017-12-16T20:31:32.412Z,2.30
2017-12-16T20:34:00.629Z,2.25
2017-12-16T20:36:28.878Z,2.22
2017-12-16T20:38:57.059Z,2.19
2017-12-16T20:41:25.241Z,2.16
2017-12-16T20:43:53.500Z,2.08
2017-12-16T20:46:21.704Z,2.06
2017-12-16T20:48:49.900Z,2.06
2017-12-16T20:51:18.861Z,2.02
2017-12-16T20:53:47.070Z,2.08
2017-12-16T20:56:16.131Z,2.12
2017-12-16T20:58:44.350Z,2.15
2017-12-16T21:01:12.709Z,2.10
2017-12-16T21:03:41.711Z,1.99
2017-12-16T21:06:10.799Z,1.91
2017-12-16T21:08:39.118Z,1.85
2017-12-16T21:11:07.345Z,1.80
2017-12-16T21:13:36.302Z,1.78
2017-12-16T21:16:04.538Z,1.71
2017-12-16T21:18:32.787Z,1.71
2017-12-16T21:21:01.007Z,1.73
2017-12-16T21:23:29.208Z,1.78
2017-12-16T21:25:58.217Z,1.78
2017-12-16T21:28:26.425Z,1.80
2017-12-16T21:30:55.400Z,1.82
2017-12-16T21:33:23.579Z,1.85
2017-12-16T21:35:51.753Z,1.86
2017-12-16T21:38:19.939Z,1.91
2017-12-16T21:40:48.101Z,1.96
2017-12-16T21:43:16.386Z,1.98
2017-12-16T21:45:44.577Z,2.01
2017-12-16T21:48:12.773Z,2.03
2017-12-16T21:50:40.951Z,2.10
2017-12-16T21:53:09.174Z,2.13
2017-12-16T21:55:37.351Z,2.16
2017-12-16T21:58:05.569Z,2.22
2017-12-16T22:00:33.739Z,2.27
2017-12-16T22:03:01.914Z,2.33
2017-12-16T22:05:30.091Z,2.35
2017-12-16T22:07:58.287Z,2.40
2017-12-16T22:10:26.476Z,2.49
2017-12-16T22:12:55.457Z,2.57
2017-12-16T22:15:23.638Z,2.63
2017-12-16T22:17:52.611Z,2.68
2017-12-16T22:20:20.812Z,2.80
2017-12-16T22:22:49.769Z,2.80
2017-12-16T22:25:17.987Z,2.80
2017-12-16T22:27:46.935Z,2.87
2017-12-16T22:30:15.146Z,2.89
2017-12-16T22:32:44.095Z,2.88
2017-12-16T22:35:12.290Z,2.82
2017-12-16T22:37:40.517Z,2.80
2017-12-16T22:40:08.746Z,2.78
2017-12-16T22:42:36.965Z,2.84
2017-12-16T22:45:05.159Z,2.78
2017-12-16T22:47:33.332Z,2.77
2017-12-16T22:50:01.541Z,2.74
2017-12-16T22:52:29.766Z,2.72
2017-12-16T22:54:57.992Z,2.70
2017-12-16T22:57:26.208Z,2.72
2017-12-16T22:59:54.428Z,2.70
2017-12-16T23:02:22.651Z,2.68
2017-12-16T23:04:51.687Z,2.67
2017-12-16T23:07:19.902Z,2.67
2017-12-16T23:09:48.126Z,2.68
2017-12-16T23:12:16.508Z,2.68
2017-12-16T23:14:44.727Z,2.64
2017-12-16T23:17:13.065Z,2.64
2017-12-16T23:19:41.324Z,2.68
2017-12-16T23:22:09.551Z,2.69
2017-12-16T23:24:37.745Z,2.72
2017-12-16T23:27:06.717Z,2.86
2017-12-16T23:29:34.962Z,2.86
2017-12-16T23:32:03.173Z,2.77
2017-12-16T23:34:31.407Z,2.84
2017-12-16T23:36:59.632Z,2.85
2017-12-16T23:39:27.845Z,2.73
2017-12-16T23:41:56.071Z,2.70
2017-12-16T23:44:24.352Z,2.68
2017-12-16T23:46:52.579Z,2.66
2017-12-16T23:49:20.801Z,2.59
2017-12-16T23:51:48.973Z,2.58
2017-12-16T23:54:17.259Z,2.62
2017-12-16T23:56:45.467Z,2.68
2017-12-16T23:59:13.703Z,2.64
